sensor_id;sensor_type;location;lat;lon;timestamp;temperature;humidity
2190;DHT22;1101;51.056;7.262;2023-03-01T00:01:36;-1.60;90.20
2190;DHT22;1101;51.056;7.262;2023-03-01T00:04:03;-1.70;90.20
2190;DHT22;1101;51.056;7.262;2023-03-01T00:06:31;-1.70;90.20
2190;DHT22;1101;51.056;7.262;2023-03-01T00:08:59;-1.70;90.20
2190;DHT22;1101;51.056;7.262;2023-03-01T00:11:29;-1.80;90.20
2190;DHT22;1101;51.056;7.262;2023-03-01T00:14:00;-1.70;90.30
2190;DHT22;1101;51.056;7.262;2023-03-01T00:16:30;-1.80;90.20
2190;DHT22;1101;51.056;7.262;2023-03-01T00:19:00;-1.80;90.30
2190;DHT22;1101;51.056;7.262;2023-03-01T00:21:28;-1.90;90.30
2190;DHT22;1101;51.056;7.262;2023-03-01T00:23:56;-1.90;90.30
2190;DHT22;1101;51.056;7.262;2023-03-01T00:26:25;-1.90;90.30
2190;DHT22;1101;51.056;7.262;2023-03-01T00:28:56;-1.90;90.30
2190;DHT22;1101;51.056;7.262;2023-03-01T00:31:26;-1.90;90.30
2190;DHT22;1101;51.056;7.262;2023-03-01T00:33:55;-2.00;90.30
2190;DHT22;1101;51.056;7.262;2023-03-01T00:36:25;-2.00;90.40
2190;DHT22;1101;51.056;7.262;2023-03-01T00:38:53;-2.00;90.40
2190;DHT22;1101;51.056;7.262;2023-03-01T00:41:22;-2.10;90.40
2190;DHT22;1101;51.056;7.262;2023-03-01T00:43:50;-2.10;90.40
2190;DHT22;1101;51.056;7.262;2023-03-01T00:46:21;-2.10;90.40
2190;DHT22;1101;51.056;7.262;2023-03-01T00:48:50;-2.10;90.40
2190;DHT22;1101;51.056;7.262;2023-03-01T00:51:21;-2.10;90.50
2190;DHT22;1101;51.056;7.262;2023-03-01T00:53:51;-2.10;90.50
2190;DHT22;1101;51.056;7.262;2023-03-01T00:56:19;-2.10;90.50
2190;DHT22;1101;51.056;7.262;2023-03-01T00:58:47;-2.10;90.50
2190;DHT22;1101;51.056;7.262;2023-03-01T01:01:18;-2.10;90.50
2190;DHT22;1101;51.056;7.262;2023-03-01T01:03:49;-2.10;90.50
2190;DHT22;1101;51.056;7.262;2023-03-01T01:06:19;-2.10;90.40
2190;DHT22;1101;51.056;7.262;2023-03-01T01:08:47;-2.10;90.50
2190;DHT22;1101;51.056;7.262;2023-03-01T01:11:15;-2.10;90.50
2190;DHT22;1101;51.056;7.262;2023-03-01T01:13:45;-2.20;90.40
2190;DHT22;1101;51.056;7.262;2023-03-01T01:16:14;-2.20;90.50
2190;DHT22;1101;51.056;7.262;2023-03-01T01:18:42;-2.20;90.50
2190;DHT22;1101;51.056;7.262;2023-03-01T01:21:13;-2.20;90.50
2190;DHT22;1101;51.056;7.262;2023-03-01T01:23:42;-2.20;90.60
2190;DHT22;1101;51.056;7.262;2023-03-01T01:26:12;-2.20;90.60
2190;DHT22;1101;51.056;7.262;2023-03-01T01:28:40;-2.20;90.50
2190;DHT22;1101;51.056;7.262;2023-03-01T01:31:07;-2.20;90.60
2190;DHT22;1101;51.056;7.262;2023-03-01T01:33:36;-2.20;90.60
2190;DHT22;1101;51.056;7.262;2023-03-01T01:36:05;-2.20;90.60
2190;DHT22;1101;51.056;7.262;2023-03-01T01:38:34;-2.20;90.60
2190;DHT22;1101;51.056;7.262;2023-03-01T01:41:03;-2.10;90.70
2190;DHT22;1101;51.056;7.262;2023-03-01T01:43:35;-2.20;90.60
2190;DHT22;1101;51.056;7.262;2023-03-01T01:46:05;-2.20;90.60
2190;DHT22;1101;51.056;7.262;2023-03-01T01:48:39;-2.20;90.60
2190;DHT22;1101;51.056;7.262;2023-03-01T01:51:12;-2.20;90.60
2190;DHT22;1101;51.056;7.262;2023-03-01T01:53:43;-2.20;90.60
2190;DHT22;1101;51.056;7.262;2023-03-01T01:56:15;-2.20;90.60
2190;DHT22;1101;51.056;7.262;2023-03-01T01:58:45;-2.30;90.60
2190;DHT22;1101;51.056;7.262;2023-03-01T02:01:13;-2.20;90.60
2190;DHT22;1101;51.056;7.262;2023-03-01T02:03:43;-2.30;90.60
2190;DHT22;1101;51.056;7.262;2023-03-01T02:06:17;-2.30;90.60
2190;DHT22;1101;51.056;7.262;2023-03-01T02:08:49;-2.30;90.60
2190;DHT22;1101;51.056;7.262;2023-03-01T02:11:19;-2.30;90.60
2190;DHT22;1101;51.056;7.262;2023-03-01T02:13:48;-2.30;90.60
2190;DHT22;1101;51.056;7.262;2023-03-01T02:16:17;-2.40;90.60
2190;DHT22;1101;51.056;7.262;2023-03-01T02:18:45;-2.40;90.60
2190;DHT22;1101;51.056;7.262;2023-03-01T02:21:26;-2.40;90.60
2190;DHT22;1101;51.056;7.262;2023-03-01T02:23:59;-2.40;90.70
2190;DHT22;1101;51.056;7.262;2023-03-01T02:26:36;-2.40;90.70
2190;DHT22;1101;51.056;7.262;2023-03-01T02:29:06;-2.40;90.70
2190;DHT22;1101;51.056;7.262;2023-03-01T02:31:34;-2.40;90.70
2190;DHT22;1101;51.056;7.262;2023-03-01T02:34:13;-2.40;90.70
2190;DHT22;1101;51.056;7.262;2023-03-01T02:36:44;-2.50;90.60
2190;DHT22;1101;51.056;7.262;2023-03-01T02:39:15;-2.50;90.60
2190;DHT22;1101;51.056;7.262;2023-03-01T02:41:48;-2.50;90.70
2190;DHT22;1101;51.056;7.262;2023-03-01T02:44:19;-2.60;90.70
2190;DHT22;1101;51.056;7.262;2023-03-01T02:46:48;-2.60;90.70
2190;DHT22;1101;51.056;7.262;2023-03-01T02:49:23;-2.60;90.70
2190;DHT22;1101;51.056;7.262;2023-03-01T02:52:30;-2.60;90.80
2190;DHT22;1101;51.056;7.262;2023-03-01T02:55:03;-2.60;90.80
2190;DHT22;1101;51.056;7.262;2023-03-01T02:57:35;-2.50;90.90
2190;DHT22;1101;51.056;7.262;2023-03-01T03:00:08;-2.60;90.90
2190;DHT22;1101;51.056;7.262;2023-03-01T03:02:45;-2.50;90.90
2190;DHT22;1101;51.056;7.262;2023-03-01T03:05:15;-2.50;90.90
2190;DHT22;1101;51.056;7.262;2023-03-01T03:07:45;-2.50;90.90
2190;DHT22;1101;51.056;7.262;2023-03-01T03:10:15;-2.50;90.90
2190;DHT22;1101;51.056;7.262;2023-03-01T03:12:43;-2.50;90.90
2190;DHT22;1101;51.056;7.262;2023-03-01T03:15:12;-2.50;90.90
2190;DHT22;1101;51.056;7.262;2023-03-01T03:17:41;-2.50;90.90
2190;DHT22;1101;51.056;7.262;2023-03-01T03:20:13;-2.40;90.90
2190;DHT22;1101;51.056;7.262;2023-03-01T03:22:46;-2.50;90.90
2190;DHT22;1101;51.056;7.262;2023-03-01T03:25:14;-2.50;90.80
2190;DHT22;1101;51.056;7.262;2023-03-01T03:27:43;-2.50;90.90
2190;DHT22;1101;51.056;7.262;2023-03-01T03:30:15;-2.50;90.80
2190;DHT22;1101;51.056;7.262;2023-03-01T03:32:44;-2.60;90.80
2190;DHT22;1101;51.056;7.262;2023-03-01T03:35:19;-2.60;90.80
2190;DHT22;1101;51.056;7.262;2023-03-01T03:37:47;-2.70;90.80
2190;DHT22;1101;51.056;7.262;2023-03-01T03:40:32;-2.70;90.90
2190;DHT22;1101;51.056;7.262;2023-03-01T03:43:01;-2.70;90.90
2190;DHT22;1101;51.056;7.262;2023-03-01T03:45:30;-2.80;90.80
2190;DHT22;1101;51.056;7.262;2023-03-01T03:48:00;-2.80;90.80
2190;DHT22;1101;51.056;7.262;2023-03-01T03:50:28;-2.80;90.90
2190;DHT22;1101;51.056;7.262;2023-03-01T03:52:56;-2.90;90.80
2190;DHT22;1101;51.056;7.262;2023-03-01T03:55:23;-2.90;90.90
2190;DHT22;1101;51.056;7.262;2023-03-01T03:57:58;-2.90;90.90
2190;DHT22;1101;51.056;7.262;2023-03-01T04:00:30;-2.90;90.90
2190;DHT22;1101;51.056;7.262;2023-03-01T04:02:57;-3.00;90.90
2190;DHT22;1101;51.056;7.262;2023-03-01T04:05:26;-3.00;90.90
2190;DHT22;1101;51.056;7.262;2023-03-01T04:07:54;-3.00;90.90
2190;DHT22;1101;51.056;7.262;2023-03-01T04:10:29;-3.10;90.80
2190;DHT22;1101;51.056;7.262;2023-03-01T04:12:58;-3.10;90.90
2190;DHT22;1101;51.056;7.262;2023-03-01T04:15:26;-3.10;90.90
2190;DHT22;1101;51.056;7.262;2023-03-01T04:17:56;-3.10;90.90
2190;DHT22;1101;51.056;7.262;2023-03-01T04:20:27;-3.20;90.90
2190;DHT22;1101;51.056;7.262;2023-03-01T04:22:58;-3.20;90.90
2190;DHT22;1101;51.056;7.262;2023-03-01T04:25:26;-3.20;90.90
2190;DHT22;1101;51.056;7.262;2023-03-01T04:27:54;-3.30;90.90
2190;DHT22;1101;51.056;7.262;2023-03-01T04:30:22;-3.30;90.90
2190;DHT22;1101;51.056;7.262;2023-03-01T04:32:51;-3.30;90.90
2190;DHT22;1101;51.056;7.262;2023-03-01T04:35:20;-3.30;90.90
2190;DHT22;1101;51.056;7.262;2023-03-01T04:37:49;-3.30;91.00
2190;DHT22;1101;51.056;7.262;2023-03-01T04:40:17;-3.40;91.00
2190;DHT22;1101;51.056;7.262;2023-03-01T04:42:45;-3.40;91.00
2190;DHT22;1101;51.056;7.262;2023-03-01T04:45:13;-3.40;91.00
2190;DHT22;1101;51.056;7.262;2023-03-01T04:47:43;-3.40;91.00
2190;DHT22;1101;51.056;7.262;2023-03-01T04:50:14;-3.40;91.00
2190;DHT22;1101;51.056;7.262;2023-03-01T04:52:43;-3.50;91.00
2190;DHT22;1101;51.056;7.262;2023-03-01T04:55:12;-3.50;90.90
2190;DHT22;1101;51.056;7.262;2023-03-01T04:57:40;-3.50;90.90
2190;DHT22;1101;51.056;7.262;2023-03-01T05:00:10;-3.60;91.00
2190;DHT22;1101;51.056;7.262;2023-03-01T05:02:48;-3.60;91.00
2190;DHT22;1101;51.056;7.262;2023-03-01T05:05:25;-3.60;91.00
2190;DHT22;1101;51.056;7.262;2023-03-01T05:07:56;-3.60;91.40
2190;DHT22;1101;51.056;7.262;2023-03-01T05:10:24;-3.60;91.10
2190;DHT22;1101;51.056;7.262;2023-03-01T05:12:52;-3.60;91.10
2190;DHT22;1101;51.056;7.262;2023-03-01T05:15:20;-3.60;91.10
2190;DHT22;1101;51.056;7.262;2023-03-01T05:17:52;-3.60;91.10
2190;DHT22;1101;51.056;7.262;2023-03-01T05:20:20;-3.60;91.10
2190;DHT22;1101;51.056;7.262;2023-03-01T05:22:50;-3.60;91.10
2190;DHT22;1101;51.056;7.262;2023-03-01T05:25:20;-3.60;91.10
2190;DHT22;1101;51.056;7.262;2023-03-01T05:27:48;-3.70;91.00
2190;DHT22;1101;51.056;7.262;2023-03-01T05:30:17;-3.70;91.10
2190;DHT22;1101;51.056;7.262;2023-03-01T05:32:46;-3.70;91.10
2190;DHT22;1101;51.056;7.262;2023-03-01T05:35:16;-3.70;91.10
2190;DHT22;1101;51.056;7.262;2023-03-01T05:37:45;-3.70;91.10
2190;DHT22;1101;51.056;7.262;2023-03-01T05:40:15;-3.70;91.10
2190;DHT22;1101;51.056;7.262;2023-03-01T05:42:46;-3.70;91.10
2190;DHT22;1101;51.056;7.262;2023-03-01T05:45:14;-3.70;91.10
2190;DHT22;1101;51.056;7.262;2023-03-01T05:47:44;-3.70;91.10
2190;DHT22;1101;51.056;7.262;2023-03-01T05:50:13;-3.70;91.10
2190;DHT22;1101;51.056;7.262;2023-03-01T05:52:45;-3.70;91.10
2190;DHT22;1101;51.056;7.262;2023-03-01T05:55:15;-3.70;91.20
2190;DHT22;1101;51.056;7.262;2023-03-01T05:57:44;-3.70;91.20
2190;DHT22;1101;51.056;7.262;2023-03-01T06:00:14;-3.80;91.10
2190;DHT22;1101;51.056;7.262;2023-03-01T06:02:42;-3.70;91.20
2190;DHT22;1101;51.056;7.262;2023-03-01T06:05:12;-3.80;91.20
2190;DHT22;1101;51.056;7.262;2023-03-01T06:07:41;-3.70;91.20
2190;DHT22;1101;51.056;7.262;2023-03-01T06:10:10;-3.70;91.20
2190;DHT22;1101;51.056;7.262;2023-03-01T06:12:39;-3.80;91.20
2190;DHT22;1101;51.056;7.262;2023-03-01T06:15:10;-3.70;91.20
2190;DHT22;1101;51.056;7.262;2023-03-01T06:17:40;-3.80;91.20
2190;DHT22;1101;51.056;7.262;2023-03-01T06:20:12;-3.70;91.30
2190;DHT22;1101;51.056;7.262;2023-03-01T06:22:41;-3.70;91.20
2190;DHT22;1101;51.056;7.262;2023-03-01T06:25:09;-3.80;91.20
2190;DHT22;1101;51.056;7.262;2023-03-01T06:27:39;-3.70;91.30
2190;DHT22;1101;51.056;7.262;2023-03-01T06:30:10;-3.70;91.40
2190;DHT22;1101;51.056;7.262;2023-03-01T06:32:38;-3.70;91.40
2190;DHT22;1101;51.056;7.262;2023-03-01T06:35:09;-3.70;91.40
2190;DHT22;1101;51.056;7.262;2023-03-01T06:37:37;-3.60;91.50
2190;DHT22;1101;51.056;7.262;2023-03-01T06:40:06;-3.60;91.50
2190;DHT22;1101;51.056;7.262;2023-03-01T06:42:35;-3.50;91.50
2190;DHT22;1101;51.056;7.262;2023-03-01T06:45:04;-3.50;91.50
2190;DHT22;1101;51.056;7.262;2023-03-01T06:47:34;-3.40;91.50
2190;DHT22;1101;51.056;7.262;2023-03-01T06:50:02;-3.40;91.50
2190;DHT22;1101;51.056;7.262;2023-03-01T06:52:30;-3.30;91.60
2190;DHT22;1101;51.056;7.262;2023-03-01T06:54:58;-3.30;91.60
2190;DHT22;1101;51.056;7.262;2023-03-01T06:57:27;-3.20;91.60
2190;DHT22;1101;51.056;7.262;2023-03-01T06:59:55;-3.10;91.70
2190;DHT22;1101;51.056;7.262;2023-03-01T07:02:23;-3.10;91.60
2190;DHT22;1101;51.056;7.262;2023-03-01T07:04:52;-3.00;91.70
2190;DHT22;1101;51.056;7.262;2023-03-01T07:07:20;-3.00;91.70
2190;DHT22;1101;51.056;7.262;2023-03-01T07:09:49;-2.90;91.70
2190;DHT22;1101;51.056;7.262;2023-03-01T07:12:17;-2.90;91.70
2190;DHT22;1101;51.056;7.262;2023-03-01T07:14:45;-2.80;91.60
2190;DHT22;1101;51.056;7.262;2023-03-01T07:17:12;-2.80;91.50
2190;DHT22;1101;51.056;7.262;2023-03-01T07:19:40;-2.70;91.50
2190;DHT22;1101;51.056;7.262;2023-03-01T07:22:09;-2.70;91.50
2190;DHT22;1101;51.056;7.262;2023-03-01T07:24:37;-2.60;91.60
2190;DHT22;1101;51.056;7.262;2023-03-01T07:27:05;-2.60;91.60
2190;DHT22;1101;51.056;7.262;2023-03-01T07:29:33;-2.50;91.60
2190;DHT22;1101;51.056;7.262;2023-03-01T07:32:03;-2.50;91.60
2190;DHT22;1101;51.056;7.262;2023-03-01T07:34:31;-2.40;91.60
2190;DHT22;1101;51.056;7.262;2023-03-01T07:36:59;-2.40;91.60
2190;DHT22;1101;51.056;7.262;2023-03-01T07:39:28;-2.40;91.60
2190;DHT22;1101;51.056;7.262;2023-03-01T07:41:56;-2.30;91.60
2190;DHT22;1101;51.056;7.262;2023-03-01T07:44:24;-2.20;91.70
2190;DHT22;1101;51.056;7.262;2023-03-01T07:46:52;-2.10;91.70
2190;DHT22;1101;51.056;7.262;2023-03-01T07:49:22;-2.00;91.70
2190;DHT22;1101;51.056;7.262;2023-03-01T07:51:52;-1.90;91.70
2190;DHT22;1101;51.056;7.262;2023-03-01T07:54:20;-1.80;91.70
2190;DHT22;1101;51.056;7.262;2023-03-01T07:56:49;-1.70;91.80
2190;DHT22;1101;51.056;7.262;2023-03-01T07:59:17;-1.60;91.80
2190;DHT22;1101;51.056;7.262;2023-03-01T08:01:45;-1.50;91.80
2190;DHT22;1101;51.056;7.262;2023-03-01T08:04:13;-1.50;91.70
2190;DHT22;1101;51.056;7.262;2023-03-01T08:06:41;-1.40;91.80
2190;DHT22;1101;51.056;7.262;2023-03-01T08:09:09;-1.30;91.80
2190;DHT22;1101;51.056;7.262;2023-03-01T08:11:37;-1.20;91.80
2190;DHT22;1101;51.056;7.262;2023-03-01T08:14:07;-1.00;92.00
2190;DHT22;1101;51.056;7.262;2023-03-01T08:16:35;-0.90;92.00
2190;DHT22;1101;51.056;7.262;2023-03-01T08:19:06;-0.80;91.90
2190;DHT22;1101;51.056;7.262;2023-03-01T08:21:35;-0.70;91.90
2190;DHT22;1101;51.056;7.262;2023-03-01T08:24:05;-0.60;91.90
2190;DHT22;1101;51.056;7.262;2023-03-01T08:26:33;-0.60;91.90
2190;DHT22;1101;51.056;7.262;2023-03-01T08:29:02;-0.50;91.90
2190;DHT22;1101;51.056;7.262;2023-03-01T08:31:33;-0.50;91.90
2190;DHT22;1101;51.056;7.262;2023-03-01T08:34:05;-0.40;91.90
2190;DHT22;1101;51.056;7.262;2023-03-01T08:36:36;-0.40;91.90
2190;DHT22;1101;51.056;7.262;2023-03-01T08:39:04;-0.30;92.00
2190;DHT22;1101;51.056;7.262;2023-03-01T08:41:33;-0.20;92.00
2190;DHT22;1101;51.056;7.262;2023-03-01T08:44:01;-0.20;91.90
2190;DHT22;1101;51.056;7.262;2023-03-01T08:46:30;-0.10;92.00
2190;DHT22;1101;51.056;7.262;2023-03-01T08:49:00;-0.10;92.00
2190;DHT22;1101;51.056;7.262;2023-03-01T08:51:28;0.00;92.10
2190;DHT22;1101;51.056;7.262;2023-03-01T08:53:56;0.00;92.10
2190;DHT22;1101;51.056;7.262;2023-03-01T08:56:23;0.10;92.10
2190;DHT22;1101;51.056;7.262;2023-03-01T08:58:51;0.20;92.10
2190;DHT22;1101;51.056;7.262;2023-03-01T09:01:19;0.30;92.10
2190;DHT22;1101;51.056;7.262;2023-03-01T09:03:47;0.40;92.10
2190;DHT22;1101;51.056;7.262;2023-03-01T09:06:16;0.40;92.00
2190;DHT22;1101;51.056;7.262;2023-03-01T09:08:45;0.50;92.10
2190;DHT22;1101;51.056;7.262;2023-03-01T09:11:15;0.60;92.10
2190;DHT22;1101;51.056;7.262;2023-03-01T09:13:43;0.60;92.10
2190;DHT22;1101;51.056;7.262;2023-03-01T09:16:12;0.70;92.10
2190;DHT22;1101;51.056;7.262;2023-03-01T09:18:41;0.70;92.00
2190;DHT22;1101;51.056;7.262;2023-03-01T09:21:11;0.80;92.00
2190;DHT22;1101;51.056;7.262;2023-03-01T09:23:42;0.80;92.00
2190;DHT22;1101;51.056;7.262;2023-03-01T09:26:13;0.90;92.00
2190;DHT22;1101;51.056;7.262;2023-03-01T09:28:42;1.00;92.00
2190;DHT22;1101;51.056;7.262;2023-03-01T09:31:12;1.10;92.00
2190;DHT22;1101;51.056;7.262;2023-03-01T09:33:41;1.20;92.00
2190;DHT22;1101;51.056;7.262;2023-03-01T09:36:12;1.20;92.00
2190;DHT22;1101;51.056;7.262;2023-03-01T09:38:42;1.30;91.90
2190;DHT22;1101;51.056;7.262;2023-03-01T09:41:14;1.30;91.80
2190;DHT22;1101;51.056;7.262;2023-03-01T09:43:49;1.40;91.90
2190;DHT22;1101;51.056;7.262;2023-03-01T09:46:23;1.40;91.90
2190;DHT22;1101;51.056;7.262;2023-03-01T09:48:56;1.50;91.90
2190;DHT22;1101;51.056;7.262;2023-03-01T09:51:27;1.60;92.00
2190;DHT22;1101;51.056;7.262;2023-03-01T09:53:58;1.70;92.00
2190;DHT22;1101;51.056;7.262;2023-03-01T09:56:29;1.80;92.00
2190;DHT22;1101;51.056;7.262;2023-03-01T09:59:07;1.80;91.90
2190;DHT22;1101;51.056;7.262;2023-03-01T10:01:44;1.90;91.90
2190;DHT22;1101;51.056;7.262;2023-03-01T10:04:28;1.90;91.90
2190;DHT22;1101;51.056;7.262;2023-03-01T10:07:05;2.00;92.00
2190;DHT22;1101;51.056;7.262;2023-03-01T10:09:38;2.10;92.10
2190;DHT22;1101;51.056;7.262;2023-03-01T10:12:10;2.20;92.10
2190;DHT22;1101;51.056;7.262;2023-03-01T10:14:42;2.30;92.10
2190;DHT22;1101;51.056;7.262;2023-03-01T10:17:19;2.40;92.10
2190;DHT22;1101;51.056;7.262;2023-03-01T10:19:47;2.50;92.10
2190;DHT22;1101;51.056;7.262;2023-03-01T10:22:17;2.60;92.10
2190;DHT22;1101;51.056;7.262;2023-03-01T10:24:50;2.70;92.10
2190;DHT22;1101;51.056;7.262;2023-03-01T10:27:22;2.80;92.20
2190;DHT22;1101;51.056;7.262;2023-03-01T10:29:58;2.80;92.10
2190;DHT22;1101;51.056;7.262;2023-03-01T10:32:30;2.90;92.00
2190;DHT22;1101;51.056;7.262;2023-03-01T10:34:58;3.00;92.00
2190;DHT22;1101;51.056;7.262;2023-03-01T10:37:26;3.10;91.80
2190;DHT22;1101;51.056;7.262;2023-03-01T10:39:58;3.20;91.90
2190;DHT22;1101;51.056;7.262;2023-03-01T10:42:29;3.30;91.80
2190;DHT22;1101;51.056;7.262;2023-03-01T10:44:58;3.40;91.80
2190;DHT22;1101;51.056;7.262;2023-03-01T10:47:27;3.40;91.70
2190;DHT22;1101;51.056;7.262;2023-03-01T10:50:00;3.50;91.70
2190;DHT22;1101;51.056;7.262;2023-03-01T10:52:31;3.60;91.70
2190;DHT22;1101;51.056;7.262;2023-03-01T10:55:04;3.70;91.60
2190;DHT22;1101;51.056;7.262;2023-03-01T10:57:38;3.80;91.60
2190;DHT22;1101;51.056;7.262;2023-03-01T11:00:22;3.80;91.50
2190;DHT22;1101;51.056;7.262;2023-03-01T11:03:02;3.90;91.50
2190;DHT22;1101;51.056;7.262;2023-03-01T11:05:30;4.10;91.30
2190;DHT22;1101;51.056;7.262;2023-03-01T11:08:01;4.10;91.30
2190;DHT22;1101;51.056;7.262;2023-03-01T11:10:32;4.30;91.50
2190;DHT22;1101;51.056;7.262;2023-03-01T11:13:08;4.40;91.50
2190;DHT22;1101;51.056;7.262;2023-03-01T11:15:36;4.50;91.40
2190;DHT22;1101;51.056;7.262;2023-03-01T11:18:04;4.60;91.30
2190;DHT22;1101;51.056;7.262;2023-03-01T11:20:40;4.70;91.40
2190;DHT22;1101;51.056;7.262;2023-03-01T11:23:10;4.80;91.30
2190;DHT22;1101;51.056;7.262;2023-03-01T11:25:42;4.90;91.20
2190;DHT22;1101;51.056;7.262;2023-03-01T11:28:14;5.00;91.30
2190;DHT22;1101;51.056;7.262;2023-03-01T11:30:50;5.00;91.20
2190;DHT22;1101;51.056;7.262;2023-03-01T11:33:39;5.10;91.10
2190;DHT22;1101;51.056;7.262;2023-03-01T11:36:16;5.20;91.20
2190;DHT22;1101;51.056;7.262;2023-03-01T11:38:47;5.30;91.10
2190;DHT22;1101;51.056;7.262;2023-03-01T11:41:20;5.30;91.10
2190;DHT22;1101;51.056;7.262;2023-03-01T11:43:52;5.40;91.10
2190;DHT22;1101;51.056;7.262;2023-03-01T11:46:34;5.40;91.00
2190;DHT22;1101;51.056;7.262;2023-03-01T11:49:18;5.50;90.90
2190;DHT22;1101;51.056;7.262;2023-03-01T11:51:58;5.50;90.90
2190;DHT22;1101;51.056;7.262;2023-03-01T11:54:41;5.60;90.90
2190;DHT22;1101;51.056;7.262;2023-03-01T11:57:19;5.60;90.80
2190;DHT22;1101;51.056;7.262;2023-03-01T12:00:05;5.70;90.80
2190;DHT22;1101;51.056;7.262;2023-03-01T12:03:00;5.80;90.90
2190;DHT22;1101;51.056;7.262;2023-03-01T12:05:49;5.90;90.90
2190;DHT22;1101;51.056;7.262;2023-03-01T12:08:24;6.00;90.70
2190;DHT22;1101;51.056;7.262;2023-03-01T12:11:02;6.00;90.60
2190;DHT22;1101;51.056;7.262;2023-03-01T12:13:51;6.10;90.60
2190;DHT22;1101;51.056;7.262;2023-03-01T12:16:34;6.10;90.50
2190;DHT22;1101;51.056;7.262;2023-03-01T12:19:21;6.20;90.60
2190;DHT22;1101;51.056;7.262;2023-03-01T12:22:00;6.30;90.60
2190;DHT22;1101;51.056;7.262;2023-03-01T12:24:48;6.30;90.60
2190;DHT22;1101;51.056;7.262;2023-03-01T12:27:42;6.40;90.50
2190;DHT22;1101;51.056;7.262;2023-03-01T12:30:25;6.40;90.50
2190;DHT22;1101;51.056;7.262;2023-03-01T12:33:08;6.50;90.40
2190;DHT22;1101;51.056;7.262;2023-03-01T12:36:09;6.50;90.40
2190;DHT22;1101;51.056;7.262;2023-03-01T12:38:42;6.60;90.50
2190;DHT22;1101;51.056;7.262;2023-03-01T12:41:40;6.70;90.40
2190;DHT22;1101;51.056;7.262;2023-03-01T12:44:27;6.70;90.40
2190;DHT22;1101;51.056;7.262;2023-03-01T12:47:07;6.80;90.40
2190;DHT22;1101;51.056;7.262;2023-03-01T12:49:42;6.80;90.30
2190;DHT22;1101;51.056;7.262;2023-03-01T12:52:18;6.80;90.00
2190;DHT22;1101;51.056;7.262;2023-03-01T12:54:49;6.80;90.10
2190;DHT22;1101;51.056;7.262;2023-03-01T12:57:23;6.90;90.10
2190;DHT22;1101;51.056;7.262;2023-03-01T13:00:04;6.90;90.00
2190;DHT22;1101;51.056;7.262;2023-03-01T13:02:40;6.90;89.80
2190;DHT22;1101;51.056;7.262;2023-03-01T13:05:24;6.90;89.60
2190;DHT22;1101;51.056;7.262;2023-03-01T13:07:59;6.90;89.70
2190;DHT22;1101;51.056;7.262;2023-03-01T13:10:33;6.90;89.30
2190;DHT22;1101;51.056;7.262;2023-03-01T13:13:12;6.90;88.80
2190;DHT22;1101;51.056;7.262;2023-03-01T13:15:41;6.90;88.60
2190;DHT22;1101;51.056;7.262;2023-03-01T13:18:31;6.90;89.00
2190;DHT22;1101;51.056;7.262;2023-03-01T13:21:03;6.90;89.10
2190;DHT22;1101;51.056;7.262;2023-03-01T13:23:35;7.00;88.90
2190;DHT22;1101;51.056;7.262;2023-03-01T13:26:14;7.00;88.70
2190;DHT22;1101;51.056;7.262;2023-03-01T13:28:53;7.10;89.00
2190;DHT22;1101;51.056;7.262;2023-03-01T13:34:53;7.10;87.80
2190;DHT22;1101;51.056;7.262;2023-03-01T13:37:25;7.10;88.00
2190;DHT22;1101;51.056;7.262;2023-03-01T13:39:57;7.20;88.30
2190;DHT22;1101;51.056;7.262;2023-03-01T13:42:37;7.20;88.70
2190;DHT22;1101;51.056;7.262;2023-03-01T13:45:24;7.20;88.30
2190;DHT22;1101;51.056;7.262;2023-03-01T13:47:57;7.30;88.00
2190;DHT22;1101;51.056;7.262;2023-03-01T13:50:29;7.30;88.10
2190;DHT22;1101;51.056;7.262;2023-03-01T13:53:04;7.30;87.60
2190;DHT22;1101;51.056;7.262;2023-03-01T13:55:37;7.40;88.10
2190;DHT22;1101;51.056;7.262;2023-03-01T13:58:16;7.40;87.70
2190;DHT22;1101;51.056;7.262;2023-03-01T14:00:46;7.40;87.80
2190;DHT22;1101;51.056;7.262;2023-03-01T14:03:16;7.40;88.20
2190;DHT22;1101;51.056;7.262;2023-03-01T14:05:59;7.40;88.50
2190;DHT22;1101;51.056;7.262;2023-03-01T14:08:40;7.40;87.30
2190;DHT22;1101;51.056;7.262;2023-03-01T14:14:32;7.40;87.90
2190;DHT22;1101;51.056;7.262;2023-03-01T14:20:14;7.40;87.20
2190;DHT22;1101;51.056;7.262;2023-03-01T14:22:46;7.40;87.20
2190;DHT22;1101;51.056;7.262;2023-03-01T14:25:21;7.40;87.70
2190;DHT22;1101;51.056;7.262;2023-03-01T14:27:58;7.40;87.50
2190;DHT22;1101;51.056;7.262;2023-03-01T14:30:34;7.40;86.70
2190;DHT22;1101;51.056;7.262;2023-03-01T14:33:05;7.30;85.20
2190;DHT22;1101;51.056;7.262;2023-03-01T14:35:35;7.30;85.50
2190;DHT22;1101;51.056;7.262;2023-03-01T14:38:05;7.20;85.30
2190;DHT22;1101;51.056;7.262;2023-03-01T14:40:35;7.20;86.10
2190;DHT22;1101;51.056;7.262;2023-03-01T14:43:10;7.20;86.10
2190;DHT22;1101;51.056;7.262;2023-03-01T14:45:38;7.20;86.60
2190;DHT22;1101;51.056;7.262;2023-03-01T14:48:07;7.30;86.30
2190;DHT22;1101;51.056;7.262;2023-03-01T14:50:40;7.20;86.50
2190;DHT22;1101;51.056;7.262;2023-03-01T14:53:17;7.20;84.90
2190;DHT22;1101;51.056;7.262;2023-03-01T14:55:48;7.20;84.30
2190;DHT22;1101;51.056;7.262;2023-03-01T14:58:19;7.20;86.20
2190;DHT22;1101;51.056;7.262;2023-03-01T15:00:50;7.20;86.80
2190;DHT22;1101;51.056;7.262;2023-03-01T15:03:27;7.20;87.00
2190;DHT22;1101;51.056;7.262;2023-03-01T15:05:58;7.20;87.30
2190;DHT22;1101;51.056;7.262;2023-03-01T15:08:28;7.30;87.40
2190;DHT22;1101;51.056;7.262;2023-03-01T15:11:01;7.30;87.00
2190;DHT22;1101;51.056;7.262;2023-03-01T15:13:31;7.20;85.40
2190;DHT22;1101;51.056;7.262;2023-03-01T15:16:06;7.10;84.90
2190;DHT22;1101;51.056;7.262;2023-03-01T15:18:34;7.00;84.90
2190;DHT22;1101;51.056;7.262;2023-03-01T15:21:08;6.90;84.60
2190;DHT22;1101;51.056;7.262;2023-03-01T15:23:38;6.80;84.90
2190;DHT22;1101;51.056;7.262;2023-03-01T15:26:22;6.80;84.80
2190;DHT22;1101;51.056;7.262;2023-03-01T15:28:52;6.70;84.40
2190;DHT22;1101;51.056;7.262;2023-03-01T15:31:26;6.60;84.30
2190;DHT22;1101;51.056;7.262;2023-03-01T15:34:08;6.50;84.70
2190;DHT22;1101;51.056;7.262;2023-03-01T15:36:40;6.40;85.00
2190;DHT22;1101;51.056;7.262;2023-03-01T15:39:29;6.30;85.00
2190;DHT22;1101;51.056;7.262;2023-03-01T15:41:59;6.20;84.50
2190;DHT22;1101;51.056;7.262;2023-03-01T15:44:29;6.10;84.50
2190;DHT22;1101;51.056;7.262;2023-03-01T15:47:23;6.00;84.40
2190;DHT22;1101;51.056;7.262;2023-03-01T15:49:53;6.00;84.70
2190;DHT22;1101;51.056;7.262;2023-03-01T15:52:24;5.90;84.20
2190;DHT22;1101;51.056;7.262;2023-03-01T15:54:57;5.90;84.40
2190;DHT22;1101;51.056;7.262;2023-03-01T15:57:26;5.80;84.30
2190;DHT22;1101;51.056;7.262;2023-03-01T15:59:54;5.80;83.90
2190;DHT22;1101;51.056;7.262;2023-03-01T16:02:23;5.70;84.50
2190;DHT22;1101;51.056;7.262;2023-03-01T16:04:51;5.70;84.70
2190;DHT22;1101;51.056;7.262;2023-03-01T16:07:20;5.70;85.00
2190;DHT22;1101;51.056;7.262;2023-03-01T16:09:48;5.70;84.40
2190;DHT22;1101;51.056;7.262;2023-03-01T16:12:17;5.60;84.50
2190;DHT22;1101;51.056;7.262;2023-03-01T16:14:46;5.60;84.10
2190;DHT22;1101;51.056;7.262;2023-03-01T16:17:15;5.50;84.40
2190;DHT22;1101;51.056;7.262;2023-03-01T16:19:43;5.50;84.40
2190;DHT22;1101;51.056;7.262;2023-03-01T16:22:10;5.40;84.40
2190;DHT22;1101;51.056;7.262;2023-03-01T16:24:38;5.40;84.60
2190;DHT22;1101;51.056;7.262;2023-03-01T16:27:07;5.30;84.70
2190;DHT22;1101;51.056;7.262;2023-03-01T16:29:36;5.30;84.30
2190;DHT22;1101;51.056;7.262;2023-03-01T16:32:04;5.30;84.00
2190;DHT22;1101;51.056;7.262;2023-03-01T16:34:32;5.20;84.40
2190;DHT22;1101;51.056;7.262;2023-03-01T16:37:00;5.20;84.40
2190;DHT22;1101;51.056;7.262;2023-03-01T16:39:28;5.20;84.60
2190;DHT22;1101;51.056;7.262;2023-03-01T16:41:56;5.10;84.10
2190;DHT22;1101;51.056;7.262;2023-03-01T16:44:23;5.10;84.20
2190;DHT22;1101;51.056;7.262;2023-03-01T16:46:53;5.10;83.80
2190;DHT22;1101;51.056;7.262;2023-03-01T16:49:20;5.00;84.00